首页
METAR-TAF:

METAR-TAF

机场 :

特里布万国际机场

加德滿都, 尼泊尔

纬度: 27-42N, 经度: 085-22E, 海拔: 1337米

当前天气观测

该预报发布于24分钟前的20:50 UTC
风速3节,风向
温度 7°C
湿度 87%
气压 1018 hPa
能見度: 6000
少量云层高于1500英尺

METAR: VNKT 292050Z 09003KT 6000 FEW015 07/05 Q1018 NOSIG

时间: 02:59 (21:14 UTC)

预报

该预报发布于4小时和14分钟前的17:00 UTC
预报有效从29日的 18点(UTC)到 30日的 18点(UTC)
风速3节,风向西转西北
能見度: 6000
少量云层高于1500英尺
成为
从 30日的 00点(UTC)到 30日的 02点(UTC)
风速2节,风向多变
能見度: 3000
少量云层高于1000英尺
轻雾
几率 40%
从 30日的 01点(UTC)到 30日的 03点(UTC)
能見度: 1500
轻雾
成为
从 30日的 04点(UTC)到 30日的 05点(UTC)
风速4节,风向东南
能見度: 5000
散云层高于3000英尺
成为
从 30日的 07点(UTC)到 30日的 09点(UTC)
风速8节,风向西
能見度: 7000
少量云层高于2000英尺
散云层高于10000英尺
几率 40%
从 30日的 07点(UTC)到 30日的 09点(UTC)
能見度: 4000
少量云层高于1500英尺
散云层高于3000英尺
多云层高于10000英尺
小雨
成为
从 30日的 14点(UTC)到 30日的 15点(UTC)
风速2节,风向多变
能見度: 6000
少量云层高于1500英尺
散云层高于3000英尺

TAF: VNKT 291700Z 2918/3018 29003KT 6000 FEW015 BECMG 3000/3002 VRB02KT 3000 BR FEW010 PROB40 3001/3003 1500 BR BECMG 3004/3005 13004KT 5000 BR/HZ FEWO15 SCT030 BECMG 3007/3009 26008KT 7000 FEW020 SCT100 PROB40 3007/3009 4000 -RA FEW015 SCT030 BKN100 BECMG 3014/3015 VRB02KT 6000 FEW015 SCT030

超过4000个机场的气象观测和天气预报(METAR&TAF报告)。

可查询的气象台以黄色和红色小点在地图上表示。

将鼠标移到小点上方,可查看气象台名称。

然后点击查看天气观测和预报。

如需切换地图:点击带黑十字的绿色按钮放大地图;点击带横线的绿色按钮缩小地图;或者点击绿色箭头查看邻近地区的地图。


METAR-TAF: